sensor_id;sensor_type;location;lat;lon;timestamp;pressure;altitude;pressure_sealevel;temperature;humidity
62849;BME280;48941;49.516;8.286;2023-05-23T00:00:29;100271.69;;;18.05;91.86
62849;BME280;48941;49.516;8.286;2023-05-23T00:02:58;100267.66;;;18.01;92.19
62849;BME280;48941;49.516;8.286;2023-05-23T00:05:27;100270.53;;;17.99;92.44
62849;BME280;48941;49.516;8.286;2023-05-23T00:07:55;100270.88;;;17.96;92.08
62849;BME280;48941;49.516;8.286;2023-05-23T00:10:23;100266.69;;;17.94;92.38
62849;BME280;48941;49.516;8.286;2023-05-23T00:12:52;100267.19;;;17.89;92.62
62849;BME280;48941;49.516;8.286;2023-05-23T00:15:20;100271.91;;;17.87;92.38
62849;BME280;48941;49.516;8.286;2023-05-23T00:17:48;100265.34;;;17.81;92.72
62849;BME280;48941;49.516;8.286;2023-05-23T00:20:16;100270.25;;;17.78;92.97
62849;BME280;48941;49.516;8.286;2023-05-23T00:22:44;100268.72;;;17.75;92.86
62849;BME280;48941;49.516;8.286;2023-05-23T00:25:13;100269.63;;;17.67;93.24
62849;BME280;48941;49.516;8.286;2023-05-23T00:27:41;100260.66;;;17.67;93.30
62849;BME280;48941;49.516;8.286;2023-05-23T00:30:11;100262.69;;;17.65;93.46
62849;BME280;48941;49.516;8.286;2023-05-23T00:32:39;100256.63;;;17.63;93.40
62849;BME280;48941;49.516;8.286;2023-05-23T00:35:07;100261.03;;;17.64;93.40
62849;BME280;48941;49.516;8.286;2023-05-23T00:37:35;100262.19;;;17.61;93.52
62849;BME280;48941;49.516;8.286;2023-05-23T00:40:04;100263.38;;;17.59;93.63
62849;BME280;48941;49.516;8.286;2023-05-23T00:42:33;100264.56;;;17.56;94.01
62849;BME280;48941;49.516;8.286;2023-05-23T00:45:01;100263.06;;;17.54;93.93
62849;BME280;48941;49.516;8.286;2023-05-23T00:47:30;100255.50;;;17.49;93.94
62849;BME280;48941;49.516;8.286;2023-05-23T00:49:59;100253.16;;;17.46;94.26
62849;BME280;48941;49.516;8.286;2023-05-23T00:52:27;100257.00;;;17.43;94.56
62849;BME280;48941;49.516;8.286;2023-05-23T00:54:54;100256.34;;;17.41;94.60
62849;BME280;48941;49.516;8.286;2023-05-23T00:57:23;100255.34;;;17.42;94.36
62849;BME280;48941;49.516;8.286;2023-05-23T00:59:51;100258.03;;;17.42;94.34
62849;BME280;48941;49.516;8.286;2023-05-23T01:02:19;100260.41;;;17.45;94.68
62849;BME280;48941;49.516;8.286;2023-05-23T01:04:49;100259.38;;;17.46;94.42
62849;BME280;48941;49.516;8.286;2023-05-23T01:07:20;100264.75;;;17.46;94.42
62849;BME280;48941;49.516;8.286;2023-05-23T01:09:48;100273.00;;;17.45;94.41
62849;BME280;48941;49.516;8.286;2023-05-23T01:12:21;100269.31;;;17.46;94.24
62849;BME280;48941;49.516;8.286;2023-05-23T01:14:58;100272.00;;;17.46;94.40
62849;BME280;48941;49.516;8.286;2023-05-23T01:17:33;100271.84;;;17.47;94.61
62849;BME280;48941;49.516;8.286;2023-05-23T01:20:10;100280.25;;;17.44;94.35
62849;BME280;48941;49.516;8.286;2023-05-23T01:23:03;100274.19;;;17.42;94.57
62849;BME280;48941;49.516;8.286;2023-05-23T01:25:59;100268.81;;;17.42;94.57
62849;BME280;48941;49.516;8.286;2023-05-23T01:28:36;100276.06;;;17.42;94.70
62849;BME280;48941;49.516;8.286;2023-05-23T01:31:05;100271.66;;;17.41;94.49
62849;BME280;48941;49.516;8.286;2023-05-23T01:33:35;100272.69;;;17.40;94.47
62849;BME280;48941;49.516;8.286;2023-05-23T01:36:05;100274.72;;;17.38;94.64
62849;BME280;48941;49.516;8.286;2023-05-23T01:38:34;100283.63;;;17.38;94.60
62849;BME280;48941;49.516;8.286;2023-05-23T01:41:02;100278.41;;;17.37;94.55
62849;BME280;48941;49.516;8.286;2023-05-23T01:43:31;100282.28;;;17.34;94.91
62849;BME280;48941;49.516;8.286;2023-05-23T01:46:00;100282.13;;;17.36;94.96
62849;BME280;48941;49.516;8.286;2023-05-23T01:48:28;100286.81;;;17.34;94.81
62849;BME280;48941;49.516;8.286;2023-05-23T01:50:57;100288.84;;;17.31;95.16
62849;BME280;48941;49.516;8.286;2023-05-23T01:53:25;100281.59;;;17.32;94.82
62849;BME280;48941;49.516;8.286;2023-05-23T01:55:54;100289.84;;;17.30;94.84
62849;BME280;48941;49.516;8.286;2023-05-23T01:58:22;100295.38;;;17.29;94.77
62849;BME280;48941;49.516;8.286;2023-05-23T02:00:52;100287.31;;;17.29;94.86
62849;BME280;48941;49.516;8.286;2023-05-23T02:03:20;100289.34;;;17.27;94.63
62849;BME280;48941;49.516;8.286;2023-05-23T02:05:48;100288.66;;;17.25;94.93
62849;BME280;48941;49.516;8.286;2023-05-23T02:08:15;100304.97;;;17.23;95.05
62849;BME280;48941;49.516;8.286;2023-05-23T02:10:43;100298.91;;;17.21;95.08
62849;BME280;48941;49.516;8.286;2023-05-23T02:13:11;100300.94;;;17.19;95.20
62849;BME280;48941;49.516;8.286;2023-05-23T02:15:39;100301.97;;;17.18;95.09
62849;BME280;48941;49.516;8.286;2023-05-23T02:18:08;100304.16;;;17.15;95.18
62849;BME280;48941;49.516;8.286;2023-05-23T02:20:36;100307.19;;;17.11;95.23
62849;BME280;48941;49.516;8.286;2023-05-23T02:23:05;100315.25;;;17.11;95.08
62849;BME280;48941;49.516;8.286;2023-05-23T02:25:32;100314.41;;;17.11;95.31
62849;BME280;48941;49.516;8.286;2023-05-23T02:28:00;100321.78;;;17.09;94.83
62849;BME280;48941;49.516;8.286;2023-05-23T02:30:28;100322.66;;;17.09;94.85
62849;BME280;48941;49.516;8.286;2023-05-23T02:32:56;100327.19;;;17.09;94.52
62849;BME280;48941;49.516;8.286;2023-05-23T02:35:25;100330.91;;;17.08;94.86
62849;BME280;48941;49.516;8.286;2023-05-23T02:37:53;100327.38;;;17.07;94.75
62849;BME280;48941;49.516;8.286;2023-05-23T02:40:21;100328.53;;;17.05;94.48
62849;BME280;48941;49.516;8.286;2023-05-23T02:42:49;100328.53;;;17.05;94.49
62849;BME280;48941;49.516;8.286;2023-05-23T02:45:17;100323.13;;;17.05;94.56
62849;BME280;48941;49.516;8.286;2023-05-23T02:47:45;100326.66;;;17.05;94.52
62849;BME280;48941;49.516;8.286;2023-05-23T02:50:13;100325.81;;;17.05;94.28
62849;BME280;48941;49.516;8.286;2023-05-23T02:52:42;100338.28;;;17.06;94.02
62849;BME280;48941;49.516;8.286;2023-05-23T02:55:10;100340.13;;;17.05;93.51
62849;BME280;48941;49.516;8.286;2023-05-23T02:57:38;100347.19;;;17.06;93.20
62849;BME280;48941;49.516;8.286;2023-05-23T03:00:07;100343.66;;;17.06;93.16
62849;BME280;48941;49.516;8.286;2023-05-23T03:02:37;100347.19;;;17.06;92.63
62849;BME280;48941;49.516;8.286;2023-05-23T03:05:06;100334.72;;;17.05;92.68
62849;BME280;48941;49.516;8.286;2023-05-23T03:07:34;100338.44;;;17.04;92.79
62849;BME280;48941;49.516;8.286;2023-05-23T03:10:05;100340.97;;;17.06;92.47
62849;BME280;48941;49.516;8.286;2023-05-23T03:12:33;100345.34;;;17.07;91.75
62849;BME280;48941;49.516;8.286;2023-05-23T03:15:00;100339.28;;;17.05;91.38
62849;BME280;48941;49.516;8.286;2023-05-23T03:17:28;100344.81;;;17.03;91.16
62849;BME280;48941;49.516;8.286;2023-05-23T03:19:56;100352.22;;;17.01;91.20
62849;BME280;48941;49.516;8.286;2023-05-23T03:22:24;100355.41;;;16.97;90.94
62849;BME280;48941;49.516;8.286;2023-05-23T03:24:52;100351.22;;;16.94;90.17
62849;BME280;48941;49.516;8.286;2023-05-23T03:27:21;100350.03;;;16.88;90.16
62849;BME280;48941;49.516;8.286;2023-05-23T03:29:48;100349.66;;;16.83;90.24
62849;BME280;48941;49.516;8.286;2023-05-23T03:32:16;100352.03;;;16.86;90.06
62849;BME280;48941;49.516;8.286;2023-05-23T03:34:44;100346.97;;;16.83;90.00
62849;BME280;48941;49.516;8.286;2023-05-23T03:37:12;100350.97;;;16.79;89.98
62849;BME280;48941;49.516;8.286;2023-05-23T03:39:40;100359.38;;;16.76;89.99
62849;BME280;48941;49.516;8.286;2023-05-23T03:42:07;100361.41;;;16.74;89.93
62849;BME280;48941;49.516;8.286;2023-05-23T03:44:37;100359.22;;;16.69;89.68
62849;BME280;48941;49.516;8.286;2023-05-23T03:47:05;100362.72;;;16.70;89.63
62849;BME280;48941;49.516;8.286;2023-05-23T03:49:33;100360.34;;;16.67;89.35
62849;BME280;48941;49.516;8.286;2023-05-23T03:52:00;100367.75;;;16.65;89.49
62849;BME280;48941;49.516;8.286;2023-05-23T03:54:28;100366.75;;;16.66;89.80
62849;BME280;48941;49.516;8.286;2023-05-23T03:56:56;100372.28;;;16.64;89.56
62849;BME280;48941;49.516;8.286;2023-05-23T03:59:24;100373.63;;;16.60;89.90
62849;BME280;48941;49.516;8.286;2023-05-23T04:01:53;100371.72;;;16.52;90.00
62849;BME280;48941;49.516;8.286;2023-05-23T04:04:24;100375.59;;;16.50;90.65
62849;BME280;48941;49.516;8.286;2023-05-23T04:06:52;100378.44;;;16.48;90.71
62849;BME280;48941;49.516;8.286;2023-05-23T04:09:20;100378.59;;;16.47;91.14
62849;BME280;48941;49.516;8.286;2023-05-23T04:11:48;100378.75;;;16.45;90.79
62849;BME280;48941;49.516;8.286;2023-05-23T04:14:16;100389.84;;;16.42;90.44
62849;BME280;48941;49.516;8.286;2023-05-23T04:16:45;100390.81;;;16.41;90.58
62849;BME280;48941;49.516;8.286;2023-05-23T04:19:16;100381.94;;;16.41;90.09
62849;BME280;48941;49.516;8.286;2023-05-23T04:21:44;100399.06;;;16.40;90.07
62849;BME280;48941;49.516;8.286;2023-05-23T04:24:12;100395.22;;;16.42;89.79
62849;BME280;48941;49.516;8.286;2023-05-23T04:26:40;100391.84;;;16.40;89.10
62849;BME280;48941;49.516;8.286;2023-05-23T04:29:08;100399.75;;;16.42;88.90
62849;BME280;48941;49.516;8.286;2023-05-23T04:31:37;100402.44;;;16.42;88.56
62849;BME280;48941;49.516;8.286;2023-05-23T04:34:05;100408.66;;;16.42;88.73
62849;BME280;48941;49.516;8.286;2023-05-23T04:36:35;100407.28;;;16.38;88.84
62849;BME280;48941;49.516;8.286;2023-05-23T04:39:03;100401.91;;;16.38;88.72
62849;BME280;48941;49.516;8.286;2023-05-23T04:41:33;100409.84;;;16.40;88.02
62849;BME280;48941;49.516;8.286;2023-05-23T04:44:02;100414.03;;;16.42;87.93
62849;BME280;48941;49.516;8.286;2023-05-23T04:46:31;100412.03;;;16.44;87.91
62849;BME280;48941;49.516;8.286;2023-05-23T04:48:59;100418.25;;;16.45;87.92
62849;BME280;48941;49.516;8.286;2023-05-23T04:51:27;100424.97;;;16.49;87.78
62849;BME280;48941;49.516;8.286;2023-05-23T04:53:56;100430.19;;;16.50;88.06
62849;BME280;48941;49.516;8.286;2023-05-23T04:56:24;100437.28;;;16.51;87.54
62849;BME280;48941;49.516;8.286;2023-05-23T04:58:53;100442.16;;;16.56;87.30
62849;BME280;48941;49.516;8.286;2023-05-23T05:01:21;100442.84;;;16.58;87.53
62849;BME280;48941;49.516;8.286;2023-05-23T05:03:50;100440.19;;;16.66;87.26
62849;BME280;48941;49.516;8.286;2023-05-23T05:06:19;100440.38;;;16.73;87.40
62849;BME280;48941;49.516;8.286;2023-05-23T05:08:47;100441.44;;;16.80;87.16
62849;BME280;48941;49.516;8.286;2023-05-23T05:11:16;100446.72;;;16.90;86.98
62849;BME280;48941;49.516;8.286;2023-05-23T05:13:44;100452.78;;;17.00;86.30
62849;BME280;48941;49.516;8.286;2023-05-23T05:16:12;100455.13;;;17.03;85.42
62849;BME280;48941;49.516;8.286;2023-05-23T05:18:40;100458.03;;;17.10;84.71
62849;BME280;48941;49.516;8.286;2023-05-23T05:21:08;100458.03;;;17.10;84.41
62849;BME280;48941;49.516;8.286;2023-05-23T05:23:36;100460.75;;;17.18;83.94
62849;BME280;48941;49.516;8.286;2023-05-23T05:26:03;100466.97;;;17.27;83.60
62849;BME280;48941;49.516;8.286;2023-05-23T05:28:33;100462.47;;;17.27;82.48
62849;BME280;48941;49.516;8.286;2023-05-23T05:31:01;100469.00;;;17.33;81.17
62849;BME280;48941;49.516;8.286;2023-05-23T05:33:30;100469.38;;;17.38;80.22
62849;BME280;48941;49.516;8.286;2023-05-23T05:36:02;100473.25;;;17.36;79.96
62849;BME280;48941;49.516;8.286;2023-05-23T05:38:30;100470.38;;;17.37;79.83
62849;BME280;48941;49.516;8.286;2023-05-23T05:40:58;100477.59;;;17.37;79.38
62849;BME280;48941;49.516;8.286;2023-05-23T05:43:25;100474.41;;;17.33;79.48
62849;BME280;48941;49.516;8.286;2023-05-23T05:45:54;100474.06;;;17.28;79.58
62849;BME280;48941;49.516;8.286;2023-05-23T05:48:22;100489.38;;;17.27;79.84
62849;BME280;48941;49.516;8.286;2023-05-23T05:50:50;100484.31;;;17.24;78.81
62849;BME280;48941;49.516;8.286;2023-05-23T05:53:18;100488.72;;;17.34;79.39
62849;BME280;48941;49.516;8.286;2023-05-23T05:55:46;100489.22;;;17.37;78.92
62849;BME280;48941;49.516;8.286;2023-05-23T05:58:14;100486.03;;;17.34;78.65
62849;BME280;48941;49.516;8.286;2023-05-23T06:00:41;100493.44;;;17.40;78.37
62849;BME280;48941;49.516;8.286;2023-05-23T06:03:11;100498.63;;;17.41;79.63
62849;BME280;48941;49.516;8.286;2023-05-23T06:05:39;100504.22;;;17.40;78.53
62849;BME280;48941;49.516;8.286;2023-05-23T06:08:07;100510.59;;;17.39;78.31
62849;BME280;48941;49.516;8.286;2023-05-23T06:10:36;100511.47;;;17.47;77.69
62849;BME280;48941;49.516;8.286;2023-05-23T06:13:05;100504.53;;;17.45;78.07
62849;BME280;48941;49.516;8.286;2023-05-23T06:15:33;100513.63;;;17.36;77.60
62849;BME280;48941;49.516;8.286;2023-05-23T06:18:01;100509.22;;;17.35;77.74
62849;BME280;48941;49.516;8.286;2023-05-23T06:20:33;100510.56;;;17.30;76.93
62849;BME280;48941;49.516;8.286;2023-05-23T06:23:01;100509.06;;;17.36;77.17
62849;BME280;48941;49.516;8.286;2023-05-23T06:25:31;100510.78;;;17.45;78.04
62849;BME280;48941;49.516;8.286;2023-05-23T06:27:59;100518.69;;;17.55;77.40
62849;BME280;48941;49.516;8.286;2023-05-23T06:30:26;100519.56;;;17.64;76.52
62849;BME280;48941;49.516;8.286;2023-05-23T06:32:55;100516.06;;;17.71;76.32
62849;BME280;48941;49.516;8.286;2023-05-23T06:35:23;100520.94;;;17.76;74.25
62849;BME280;48941;49.516;8.286;2023-05-23T06:37:52;100524.47;;;17.68;73.85
62849;BME280;48941;49.516;8.286;2023-05-23T06:40:20;100527.50;;;17.74;73.75
62849;BME280;48941;49.516;8.286;2023-05-23T06:42:48;100525.63;;;17.66;74.43
62849;BME280;48941;49.516;8.286;2023-05-23T06:45:16;100536.06;;;17.61;73.92
62849;BME280;48941;49.516;8.286;2023-05-23T06:47:44;100539.09;;;17.66;73.89
62849;BME280;48941;49.516;8.286;2023-05-23T06:50:13;100550.72;;;17.66;73.63
62849;BME280;48941;49.516;8.286;2023-05-23T06:52:45;100546.66;;;17.62;73.41
62849;BME280;48941;49.516;8.286;2023-05-23T06:55:14;100551.38;;;17.52;73.02
62849;BME280;48941;49.516;8.286;2023-05-23T06:57:45;100549.19;;;17.56;72.87
62849;BME280;48941;49.516;8.286;2023-05-23T07:00:13;100555.94;;;17.60;73.13
62849;BME280;48941;49.516;8.286;2023-05-23T07:02:41;100554.56;;;17.56;72.63
62849;BME280;48941;49.516;8.286;2023-05-23T07:05:11;100565.66;;;17.52;72.96
62849;BME280;48941;49.516;8.286;2023-05-23T07:07:38;100563.13;;;17.51;72.91
62849;BME280;48941;49.516;8.286;2023-05-23T07:10:07;100564.31;;;17.48;74.11
62849;BME280;48941;49.516;8.286;2023-05-23T07:12:37;100568.03;;;17.56;74.13
62849;BME280;48941;49.516;8.286;2023-05-23T07:15:06;100569.38;;;17.51;73.86
62849;BME280;48941;49.516;8.286;2023-05-23T07:17:34;100565.34;;;17.56;72.37
62849;BME280;48941;49.516;8.286;2023-05-23T07:20:02;100578.13;;;17.54;72.54
62849;BME280;48941;49.516;8.286;2023-05-23T07:22:31;100572.38;;;17.48;73.51
62849;BME280;48941;49.516;8.286;2023-05-23T07:24:59;100570.03;;;17.45;74.33
62849;BME280;48941;49.516;8.286;2023-05-23T07:27:27;100570.88;;;17.46;74.48
62849;BME280;48941;49.516;8.286;2023-05-23T07:29:56;100568.19;;;17.46;74.09
62849;BME280;48941;49.516;8.286;2023-05-23T07:32:24;100575.22;;;17.47;74.39
62849;BME280;48941;49.516;8.286;2023-05-23T07:34:52;100571.22;;;17.59;73.93
62849;BME280;48941;49.516;8.286;2023-05-23T07:37:20;100579.66;;;17.56;72.62
62849;BME280;48941;49.516;8.286;2023-05-23T07:39:48;100578.13;;;17.54;72.72
62849;BME280;48941;49.516;8.286;2023-05-23T07:42:15;100573.44;;;17.56;72.27
62849;BME280;48941;49.516;8.286;2023-05-23T07:44:43;100573.06;;;17.59;72.72
62849;BME280;48941;49.516;8.286;2023-05-23T07:47:12;100583.38;;;17.63;71.63
62849;BME280;48941;49.516;8.286;2023-05-23T07:49:43;100585.06;;;17.72;71.32
62849;BME280;48941;49.516;8.286;2023-05-23T07:52:12;100585.91;;;17.73;70.86
62849;BME280;48941;49.516;8.286;2023-05-23T07:54:40;100586.78;;;17.74;71.06
62849;BME280;48941;49.516;8.286;2023-05-23T07:57:09;100592.50;;;17.79;71.26
62849;BME280;48941;49.516;8.286;2023-05-23T07:59:37;100592.66;;;17.77;70.97
62849;BME280;48941;49.516;8.286;2023-05-23T08:02:05;100589.28;;;17.75;70.88
62849;BME280;48941;49.516;8.286;2023-05-23T08:04:34;100586.78;;;17.74;71.69
62849;BME280;48941;49.516;8.286;2023-05-23T08:07:02;100590.13;;;17.76;71.78
62849;BME280;48941;49.516;8.286;2023-05-23T08:09:31;100596.00;;;17.79;72.15
62849;BME280;48941;49.516;8.286;2023-05-23T08:11:59;100595.84;;;17.81;71.04
62849;BME280;48941;49.516;8.286;2023-05-23T08:14:27;100592.88;;;17.84;70.96
62849;BME280;48941;49.516;8.286;2023-05-23T08:17:15;100593.72;;;17.92;70.89
62849;BME280;48941;49.516;8.286;2023-05-23T08:19:44;100591.19;;;17.91;71.17
62849;BME280;48941;49.516;8.286;2023-05-23T08:22:12;100590.38;;;17.99;70.95
62849;BME280;48941;49.516;8.286;2023-05-23T08:24:40;100594.41;;;18.03;71.68
62849;BME280;48941;49.516;8.286;2023-05-23T08:27:07;100594.09;;;18.06;70.55
62849;BME280;48941;49.516;8.286;2023-05-23T08:29:35;100596.94;;;18.04;70.29
62849;BME280;48941;49.516;8.286;2023-05-23T08:32:04;100583.81;;;18.09;70.18
62849;BME280;48941;49.516;8.286;2023-05-23T08:34:32;100576.25;;;18.29;68.75
62849;BME280;48941;49.516;8.286;2023-05-23T08:37:01;100572.34;;;18.57;67.88
62849;BME280;48941;49.516;8.286;2023-05-23T08:39:29;100577.38;;;18.84;67.29
62849;BME280;48941;49.516;8.286;2023-05-23T08:41:57;100574.44;;;19.10;66.29
62849;BME280;48941;49.516;8.286;2023-05-23T08:44:25;100578.56;;;19.38;64.80
62849;BME280;48941;49.516;8.286;2023-05-23T08:46:53;100585.56;;;19.55;63.49
62849;BME280;48941;49.516;8.286;2023-05-23T08:49:24;100581.69;;;19.81;63.65
62849;BME280;48941;49.516;8.286;2023-05-23T08:51:55;100583.59;;;20.03;61.99
62849;BME280;48941;49.516;8.286;2023-05-23T08:54:25;100591.03;;;20.24;61.65
62849;BME280;48941;49.516;8.286;2023-05-23T08:56:54;100582.78;;;20.41;61.29
62849;BME280;48941;49.516;8.286;2023-05-23T08:59:23;100588.50;;;20.46;60.94
62849;BME280;48941;49.516;8.286;2023-05-23T09:01:54;100584.94;;;20.45;60.44
62849;BME280;48941;49.516;8.286;2023-05-23T09:04:23;100597.34;;;20.40;59.09
62849;BME280;48941;49.516;8.286;2023-05-23T09:06:52;100590.50;;;20.29;59.50
62849;BME280;48941;49.516;8.286;2023-05-23T09:09:21;100602.50;;;20.26;59.31
62849;BME280;48941;49.516;8.286;2023-05-23T09:11:51;100590.75;;;20.19;59.79
62849;BME280;48941;49.516;8.286;2023-05-23T09:14:19;100602.31;;;20.05;59.57
62849;BME280;48941;49.516;8.286;2023-05-23T09:16:48;100593.94;;;20.00;60.08
62849;BME280;48941;49.516;8.286;2023-05-23T09:19:17;100598.13;;;20.02;60.89
62849;BME280;48941;49.516;8.286;2023-05-23T09:21:45;100597.63;;;19.99;60.35
62849;BME280;48941;49.516;8.286;2023-05-23T09:24:13;100599.00;;;19.95;60.96
62849;BME280;48941;49.516;8.286;2023-05-23T09:26:41;100602.38;;;19.97;60.16
62849;BME280;48941;49.516;8.286;2023-05-23T09:29:18;100595.41;;;20.02;60.51
62849;BME280;48941;49.516;8.286;2023-05-23T09:31:46;100606.06;;;20.27;60.89
62849;BME280;48941;49.516;8.286;2023-05-23T09:34:14;100602.50;;;20.49;60.31
62849;BME280;48941;49.516;8.286;2023-05-23T09:36:42;100592.28;;;20.75;60.24
62849;BME280;48941;49.516;8.286;2023-05-23T09:39:11;100596.59;;;20.99;57.96
62849;BME280;48941;49.516;8.286;2023-05-23T09:41:38;100591.97;;;21.07;58.19
62849;BME280;48941;49.516;8.286;2023-05-23T09:44:08;100598.50;;;21.13;58.69
62849;BME280;48941;49.516;8.286;2023-05-23T09:46:37;100596.31;;;21.08;56.86
62849;BME280;48941;49.516;8.286;2023-05-23T09:49:15;100598.94;;;21.02;57.22
62849;BME280;48941;49.516;8.286;2023-05-23T09:51:56;100601.75;;;20.94;56.84
62849;BME280;48941;49.516;8.286;2023-05-23T09:54:24;100604.72;;;20.69;57.23
62849;BME280;48941;49.516;8.286;2023-05-23T09:56:52;100606.34;;;20.55;57.49
62849;BME280;48941;49.516;8.286;2023-05-23T09:59:22;100607.66;;;20.36;57.96
62849;BME280;48941;49.516;8.286;2023-05-23T10:01:56;100608.94;;;20.25;59.40
62849;BME280;48941;49.516;8.286;2023-05-23T10:04:29;100609.25;;;20.07;60.44
62849;BME280;48941;49.516;8.286;2023-05-23T10:07:02;100614.00;;;20.05;60.95
62849;BME280;48941;49.516;8.286;2023-05-23T10:09:35;100609.66;;;19.96;60.81
62849;BME280;48941;49.516;8.286;2023-05-23T10:15:14;100618.91;;;19.70;61.87
62849;BME280;48941;49.516;8.286;2023-05-23T10:18:01;100616.78;;;19.58;62.08
62849;BME280;48941;49.516;8.286;2023-05-23T10:20:30;100615.56;;;19.60;61.33
62849;BME280;48941;49.516;8.286;2023-05-23T10:22:59;100605.25;;;19.64;61.49
62849;BME280;48941;49.516;8.286;2023-05-23T10:25:28;100614.53;;;19.69;61.33
62849;BME280;48941;49.516;8.286;2023-05-23T10:27:57;100607.78;;;19.74;61.89
62849;BME280;48941;49.516;8.286;2023-05-23T10:30:29;100612.16;;;19.75;62.80
62849;BME280;48941;49.516;8.286;2023-05-23T10:32:59;100612.09;;;19.83;62.08
62849;BME280;48941;49.516;8.286;2023-05-23T10:35:39;100612.75;;;19.85;61.45
62849;BME280;48941;49.516;8.286;2023-05-23T10:38:21;100607.66;;;19.90;60.64
62849;BME280;48941;49.516;8.286;2023-05-23T10:40:57;100613.56;;;19.94;61.19
62849;BME280;48941;49.516;8.286;2023-05-23T10:43:32;100609.53;;;19.89;61.28
62849;BME280;48941;49.516;8.286;2023-05-23T10:46:02;100612.53;;;19.95;61.21
62849;BME280;48941;49.516;8.286;2023-05-23T10:48:35;100623.56;;;19.85;61.00
62849;BME280;48941;49.516;8.286;2023-05-23T10:51:09;100618.16;;;19.85;61.91
62849;BME280;48941;49.516;8.286;2023-05-23T10:53:39;100620.56;;;19.80;61.45
62849;BME280;48941;49.516;8.286;2023-05-23T10:56:09;100620.44;;;19.73;61.26
62849;BME280;48941;49.516;8.286;2023-05-23T10:58:38;100629.75;;;19.62;61.55
62849;BME280;48941;49.516;8.286;2023-05-23T11:01:07;100617.28;;;19.61;62.33
62849;BME280;48941;49.516;8.286;2023-05-23T11:03:48;100618.94;;;19.62;61.50
62849;BME280;48941;49.516;8.286;2023-05-23T11:06:30;100624.72;;;19.59;61.46
62849;BME280;48941;49.516;8.286;2023-05-23T11:09:03;100625.53;;;19.60;61.36
62849;BME280;48941;49.516;8.286;2023-05-23T11:12:00;100626.03;;;19.72;61.03
62849;BME280;48941;49.516;8.286;2023-05-23T11:14:32;100623.09;;;19.81;60.78
62849;BME280;48941;49.516;8.286;2023-05-23T11:17:14;100625.16;;;20.02;61.38
62849;BME280;48941;49.516;8.286;2023-05-23T11:19:55;100617.28;;;20.39;60.57
62849;BME280;48941;49.516;8.286;2023-05-23T11:22:28;100617.44;;;20.83;58.77
62849;BME280;48941;49.516;8.286;2023-05-23T11:24:57;100624.53;;;21.14;57.76
62849;BME280;48941;49.516;8.286;2023-05-23T11:27:26;100624.34;;;21.31;56.97
62849;BME280;48941;49.516;8.286;2023-05-23T11:29:59;100633.22;;;21.39;56.25
62849;BME280;48941;49.516;8.286;2023-05-23T11:32:28;100630.69;;;21.38;54.71
62849;BME280;48941;49.516;8.286;2023-05-23T11:35:02;100628.66;;;21.40;54.50
62849;BME280;48941;49.516;8.286;2023-05-23T11:37:31;100630.50;;;21.24;54.49
62849;BME280;48941;49.516;8.286;2023-05-23T11:39:59;100628.66;;;21.25;55.46
62849;BME280;48941;49.516;8.286;2023-05-23T11:42:47;100622.97;;;21.20;56.05
62849;BME280;48941;49.516;8.286;2023-05-23T11:45:14;100626.69;;;21.19;54.88
62849;BME280;48941;49.516;8.286;2023-05-23T11:47:42;100629.13;;;21.14;55.18
62849;BME280;48941;49.516;8.286;2023-05-23T11:50:13;100639.31;;;21.12;56.74
62849;BME280;48941;49.516;8.286;2023-05-23T11:52:42;100633.19;;;20.95;56.91
62849;BME280;48941;49.516;8.286;2023-05-23T11:55:10;100631.31;;;20.80;56.64
62849;BME280;48941;49.516;8.286;2023-05-23T11:57:38;100636.56;;;20.82;56.75
62849;BME280;48941;49.516;8.286;2023-05-23T12:00:08;100639.91;;;20.84;57.57
62849;BME280;48941;49.516;8.286;2023-05-23T12:02:37;100634.41;;;20.92;56.88
62849;BME280;48941;49.516;8.286;2023-05-23T12:05:07;100627.34;;;20.91;56.05
62849;BME280;48941;49.516;8.286;2023-05-23T12:07:39;100626.88;;;20.87;56.55
62849;BME280;48941;49.516;8.286;2023-05-23T12:10:08;100627.78;;;20.80;56.76
62849;BME280;48941;49.516;8.286;2023-05-23T12:12:39;100628.25;;;20.83;57.45
62849;BME280;48941;49.516;8.286;2023-05-23T12:15:08;100622.84;;;20.98;57.52
62849;BME280;48941;49.516;8.286;2023-05-23T12:17:37;100623.88;;;20.97;57.48
62849;BME280;48941;49.516;8.286;2023-05-23T12:20:06;100617.25;;;21.00;57.36
62849;BME280;48941;49.516;8.286;2023-05-23T12:22:34;100621.19;;;21.12;55.96
62849;BME280;48941;49.516;8.286;2023-05-23T12:25:07;100625.03;;;21.03;55.58
62849;BME280;48941;49.516;8.286;2023-05-23T12:27:35;100622.22;;;21.11;56.44
62849;BME280;48941;49.516;8.286;2023-05-23T12:30:04;100630.44;;;21.18;55.61
62849;BME280;48941;49.516;8.286;2023-05-23T12:32:32;100617.63;;;21.26;55.17
62849;BME280;48941;49.516;8.286;2023-05-23T12:35:01;100619.03;;;21.37;56.10
62849;BME280;48941;49.516;8.286;2023-05-23T12:37:30;100629.22;;;21.65;56.35
62849;BME280;48941;49.516;8.286;2023-05-23T12:40:10;100618.84;;;21.90;54.21
62849;BME280;48941;49.516;8.286;2023-05-23T12:42:48;100631.22;;;22.14;52.29
62849;BME280;48941;49.516;8.286;2023-05-23T12:45:18;100627.94;;;22.40;52.49
62849;BME280;48941;49.516;8.286;2023-05-23T12:47:46;100631.69;;;22.61;51.81
62849;BME280;48941;49.516;8.286;2023-05-23T12:50:16;100626.69;;;22.64;50.75
62849;BME280;48941;49.516;8.286;2023-05-23T12:52:44;100629.69;;;22.48;50.28
62849;BME280;48941;49.516;8.286;2023-05-23T12:55:14;100627.13;;;22.68;50.33
62849;BME280;48941;49.516;8.286;2023-05-23T12:57:42;100625.31;;;22.75;50.11
62849;BME280;48941;49.516;8.286;2023-05-23T13:00:11;100626.50;;;22.66;50.51
62849;BME280;48941;49.516;8.286;2023-05-23T13:02:39;100624.03;;;22.43;51.68
62849;BME280;48941;49.516;8.286;2023-05-23T13:05:07;100619.78;;;22.62;50.98